Time;durP1;ratioP1;P1;durP2;ratioP2;P2;SDS_P1;SDS_P2;PMS_P1;PMS_P2;Temp;Humidity;BMP_temperature;BMP_pressure;BME280_temperature;BME280_humidity;BME280_pressure;Samples;Min_cycle;Max_cycle;Signal;HPM_P1;HPM_P2
2021/11/14 00:00:51;;;;;;;41.77;21.97;;;13.60;99.90;;;;;;5062439;28;20179;-89
2021/11/14 00:03:17;;;;;;;46.33;22.03;;;13.60;99.90;;;;;;5063358;28;20289;-89
2021/11/14 00:05:43;;;;;;;40.57;22.13;;;13.60;99.90;;;;;;5060937;28;20663;-88
2021/11/14 00:08:12;;;;;;;37.37;21.43;;;13.60;99.90;;;;;;5076801;28;20193;-89
2021/11/14 00:10:39;;;;;;;44.57;23.50;;;13.60;99.90;;;;;;5060404;28;20718;-88
2021/11/14 00:13:05;;;;;;;40.10;21.80;;;13.70;99.90;;;;;;5075973;28;20619;-87
2021/11/14 00:15:32;;;;;;;43.70;22.63;;;13.70;99.90;;;;;;5062344;28;20300;-89
2021/11/14 00:17:58;;;;;;;44.60;23.00;;;13.80;99.90;;;;;;5058605;28;20199;-88
2021/11/14 00:20:25;;;;;;;43.00;22.77;;;13.70;99.90;;;;;;5076857;28;20532;-88
2021/11/14 00:22:51;;;;;;;44.10;23.57;;;13.80;99.90;;;;;;5061366;28;20199;-89
2021/11/14 00:25:17;;;;;;;41.20;22.47;;;13.80;99.90;;;;;;5058557;28;20193;-88
2021/11/14 00:27:45;;;;;;;42.57;23.20;;;13.80;99.90;;;;;;5061969;28;20207;-89
2021/11/14 00:30:11;;;;;;;39.10;22.37;;;13.80;99.90;;;;;;5059585;28;20261;-89
2021/11/14 00:32:37;;;;;;;41.53;22.23;;;13.80;99.90;;;;;;5062159;28;20196;-88
2021/11/14 00:35:06;;;;;;;40.97;23.23;;;13.80;99.90;;;;;;5059889;28;20173;-88
2021/11/14 00:37:34;;;;;;;42.90;23.53;;;13.90;99.90;;;;;;5075376;28;20563;-88
2021/11/14 00:40:01;;;;;;;43.47;23.23;;;13.90;99.90;;;;;;5075676;28;20283;-88
2021/11/14 00:42:26;;;;;;;41.70;23.10;;;14.00;99.90;;;;;;5059349;28;20205;-88
2021/11/14 00:44:52;;;;;;;48.00;23.87;;;13.90;99.90;;;;;;5060558;28;20198;-88
2021/11/14 00:47:18;;;;;;;43.57;22.57;;;14.00;99.90;;;;;;5061142;28;20211;-88
2021/11/14 00:49:44;;;;;;;47.50;23.43;;;13.90;99.90;;;;;;5076052;28;20264;-88
2021/11/14 00:52:10;;;;;;;38.20;22.20;;;13.90;99.90;;;;;;5059033;28;20216;-89
2021/11/14 00:54:35;;;;;;;43.77;23.20;;;13.80;99.90;;;;;;5060246;28;20275;-88
2021/11/14 00:57:01;;;;;;;40.33;22.97;;;13.90;99.90;;;;;;5077085;28;20616;-88
2021/11/14 00:59:27;;;;;;;40.00;23.07;;;13.90;99.90;;;;;;5063919;28;20208;-87
2021/11/14 01:01:53;;;;;;;47.37;24.00;;;13.90;99.90;;;;;;5068037;28;20860;-88
2021/11/14 01:04:18;;;;;;;35.50;21.23;;;13.80;99.90;;;;;;5083738;28;20272;-88
2021/11/14 01:06:47;;;;;;;42.10;22.70;;;13.80;99.90;;;;;;5085593;28;21058;-88
2021/11/14 01:09:15;;;;;;;44.80;23.03;;;13.80;99.90;;;;;;5079718;28;20222;-87
2021/11/14 01:11:41;;;;;;;45.50;24.43;;;13.80;99.90;;;;;;5083590;28;20259;-88
2021/11/14 01:14:07;;;;;;;44.67;23.43;;;13.80;99.90;;;;;;5064803;28;20224;-89
2021/11/14 01:16:32;;;;;;;43.63;23.47;;;13.80;99.90;;;;;;5079652;28;20217;-89
2021/11/14 01:18:58;;;;;;;50.07;25.30;;;13.80;99.90;;;;;;5077785;28;20195;-89
2021/11/14 01:21:27;;;;;;;40.70;22.23;;;13.80;99.90;;;;;;5075324;28;20566;-88
2021/11/14 01:23:55;;;;;;;43.10;23.30;;;13.80;99.90;;;;;;5061206;28;20179;-88
2021/11/14 01:26:21;;;;;;;47.30;24.20;;;13.80;99.90;;;;;;5075021;28;20205;-87
2021/11/14 01:28:47;;;;;;;50.23;24.83;;;13.80;99.90;;;;;;5062975;28;20180;-88
2021/11/14 01:31:13;;;;;;;44.13;24.03;;;13.80;99.90;;;;;;5061027;28;20178;-87
2021/11/14 01:33:39;;;;;;;43.20;23.70;;;13.80;99.90;;;;;;5058624;28;20183;-88
2021/11/14 01:36:05;;;;;;;43.93;24.63;;;13.80;99.90;;;;;;5058683;28;20184;-88
2021/11/14 01:38:31;;;;;;;42.40;22.43;;;13.80;99.90;;;;;;5063609;28;20681;-89
2021/11/14 01:41:05;;;;;;;48.50;25.80;;;13.80;99.90;;;;;;5059330;28;20204;-88
2021/11/14 01:43:37;;;;;;;42.60;24.13;;;13.80;99.90;;;;;;5076149;28;20554;-88
2021/11/14 01:46:05;;;;;;;41.57;24.53;;;13.50;99.90;;;;;;5062339;28;20207;-88
2021/11/14 01:48:32;;;;;;;48.07;25.40;;;13.50;99.90;;;;;;5059213;28;20230;-88
2021/11/14 01:50:58;;;;;;;48.73;25.27;;;13.40;99.90;;;;;;5059715;28;20224;-88
2021/11/14 01:53:25;;;;;;;42.67;25.13;;;13.30;99.90;;;;;;5060534;28;20192;-89
2021/11/14 01:55:52;;;;;;;45.77;25.10;;;13.40;99.90;;;;;;5077389;28;20625;-88
2021/11/14 01:58:20;;;;;;;47.43;26.60;;;13.50;99.90;;;;;;5062434;28;20181;-89
2021/11/14 02:01:10;;;;;;;47.60;26.77;;;13.60;99.90;;;;;;5074785;28;20223;-89
2021/11/14 02:03:39;;;;;;;50.00;27.43;;;13.60;99.90;;;;;;5077543;28;20187;-88
2021/11/14 02:06:07;;;;;;;51.50;27.70;;;13.50;99.90;;;;;;5061348;28;20192;-88
2021/11/14 02:08:36;;;;;;;53.67;28.30;;;13.50;99.90;;;;;;5076550;28;20589;-89
2021/11/14 02:11:03;;;;;;;54.13;28.87;;;13.50;99.90;;;;;;5070293;28;20182;-87
2021/11/14 02:13:30;;;;;;;50.23;27.67;;;13.40;99.90;;;;;;5060300;28;20194;-88
2021/11/14 02:15:56;;;;;;;52.63;29.20;;;13.30;99.90;;;;;;5065006;28;20194;-88
2021/11/14 02:18:23;;;;;;;55.40;29.50;;;13.30;99.90;;;;;;5075944;28;20532;-87
2021/11/14 02:20:49;;;;;;;51.97;29.73;;;13.40;99.90;;;;;;5073543;28;20637;-87
2021/11/14 02:23:18;;;;;;;61.07;29.97;;;13.40;99.90;;;;;;5075455;28;20194;-88
2021/11/14 02:25:46;;;;;;;53.67;29.33;;;13.40;99.90;;;;;;5058922;28;20190;-88
2021/11/14 02:28:12;;;;;;;55.30;29.80;;;13.40;99.90;;;;;;5056971;28;20240;-87
2021/11/14 02:30:38;;;;;;;59.30;30.77;;;13.40;99.90;;;;;;5058163;28;20729;-88
2021/11/14 02:33:05;;;;;;;55.70;29.47;;;13.40;99.90;;;;;;5075010;28;20275;-88
2021/11/14 02:35:33;;;;;;;53.70;29.33;;;13.50;99.90;;;;;;5075055;28;20202;-88
2021/11/14 02:37:59;;;;;;;62.50;31.43;;;13.50;99.90;;;;;;5073600;28;20650;-88
2021/11/14 02:40:24;;;;;;;58.90;29.87;;;13.60;99.90;;;;;;5062441;28;20253;-88
2021/11/14 02:42:51;;;;;;;57.87;31.60;;;13.70;99.90;;;;;;5060895;28;20728;-88
2021/11/14 02:45:21;;;;;;;55.17;30.47;;;13.70;99.90;;;;;;5062037;28;20186;-88
2021/11/14 02:47:48;;;;;;;55.87;30.13;;;13.70;99.90;;;;;;5074587;28;20231;-88
2021/11/14 02:50:15;;;;;;;50.17;28.80;;;13.60;99.90;;;;;;5076506;28;20173;-88
2021/11/14 02:52:40;;;;;;;52.50;27.80;;;13.40;99.90;;;;;;5060659;28;20551;-88
2021/11/14 02:55:14;;;;;;;49.53;29.00;;;13.30;99.90;;;;;;5075842;28;20191;-88
2021/11/14 02:57:40;;;;;;;50.33;27.57;;;13.40;99.90;;;;;;5089671;28;20231;-88
2021/11/14 03:00:14;;;;;;;53.53;28.27;;;13.50;99.90;;;;;;5060366;28;20175;-88
2021/11/14 03:02:40;;;;;;;51.47;27.40;;;13.50;99.90;;;;;;5077115;28;20341;-88
2021/11/14 03:05:12;;;;;;;49.17;27.70;;;13.50;99.90;;;;;;5062216;28;20188;-88
2021/11/14 03:07:38;;;;;;;47.50;25.77;;;13.50;99.90;;;;;;5077379;28;20208;-88
2021/11/14 03:10:07;;;;;;;42.17;24.93;;;13.40;99.90;;;;;;5076536;28;20192;-89
2021/11/14 03:12:32;;;;;;;46.30;26.63;;;13.40;99.90;;;;;;5064533;28;20279;-88
2021/11/14 03:14:59;;;;;;;42.57;26.17;;;13.40;99.90;;;;;;5081081;28;20240;-88
2021/11/14 03:17:26;;;;;;;46.00;26.63;;;13.40;99.90;;;;;;5078986;28;20188;-88
2021/11/14 03:19:52;;;;;;;36.63;23.27;;;13.40;99.90;;;;;;5063473;28;20184;-89
2021/11/14 03:22:18;;;;;;;81.97;25.33;;;13.40;99.90;;;;;;5062818;28;20188;-90
2021/11/14 03:24:44;;;;;;;39.27;24.73;;;13.40;99.90;;;;;;5076252;28;20232;-89
2021/11/14 03:27:10;;;;;;;42.33;23.77;;;13.10;99.90;;;;;;5061447;28;20215;-89
2021/11/14 03:29:36;;;;;;;41.40;25.00;;;13.00;99.90;;;;;;5096430;28;20188;-89
2021/11/14 03:32:03;;;;;;;41.93;24.53;;;12.90;99.90;;;;;;5061755;28;20525;-90
2021/11/14 03:34:28;;;;;;;38.73;23.97;;;12.90;99.90;;;;;;5061974;28;20184;-89
2021/11/14 03:36:54;;;;;;;40.97;24.80;;;12.90;99.90;;;;;;5079334;28;20190;-89
2021/11/14 03:39:20;;;;;;;39.57;25.17;;;12.80;99.90;;;;;;5077219;28;20245;-90
2021/11/14 03:41:46;;;;;;;43.97;26.87;;;12.80;99.90;;;;;;5078198;28;20180;-90
2021/11/14 03:44:13;;;;;;;41.00;25.37;;;13.00;99.90;;;;;;5078090;28;20230;-89
2021/11/14 03:46:39;;;;;;;49.20;27.17;;;13.20;99.90;;;;;;5061532;28;20203;-89
2021/11/14 03:49:05;;;;;;;46.87;27.67;;;13.40;99.90;;;;;;5077065;28;20692;-89
2021/11/14 03:51:33;;;;;;;53.37;29.93;;;13.40;99.90;;;;;;5077106;28;20177;-89
2021/11/14 03:53:59;;;;;;;54.77;30.30;;;13.50;99.90;;;;;;5075313;28;20194;-88
2021/11/14 03:56:25;;;;;;;54.03;29.73;;;13.40;99.90;;;;;;5057900;28;20188;-88
2021/11/14 03:58:51;;;;;;;53.60;31.03;;;13.20;99.90;;;;;;5091597;28;20645;-88
2021/11/14 04:01:20;;;;;;;51.80;29.70;;;13.00;99.90;;;;;;5079119;28;20275;-88
2021/11/14 04:03:47;;;;;;;58.43;31.30;;;13.10;99.90;;;;;;5062917;28;20189;-88
2021/11/14 04:06:15;;;;;;;58.33;32.63;;;13.10;99.90;;;;;;5062379;28;20689;-89
2021/11/14 04:08:41;;;;;;;58.97;32.03;;;13.10;99.90;;;;;;5066726;28;20233;-88
2021/11/14 04:11:07;;;;;;;65.90;34.13;;;13.10;99.90;;;;;;5079255;28;20585;-88
2021/11/14 04:13:34;;;;;;;64.60;32.87;;;13.20;99.90;;;;;;5065798;28;20187;-88
2021/11/14 04:16:07;;;;;;;66.53;34.03;;;13.20;99.90;;;;;;5060798;28;20648;-88
2021/11/14 04:18:34;;;;;;;70.00;34.03;;;13.10;99.90;;;;;;5075590;28;20270;-88
2021/11/14 04:21:01;;;;;;;76.40;35.00;;;13.20;99.90;;;;;;5062840;28;20205;-87
2021/11/14 04:23:26;;;;;;;71.67;35.47;;;13.10;99.90;;;;;;5061759;28;20175;-88
2021/11/14 04:25:53;;;;;;;69.40;34.47;;;12.90;99.90;;;;;;5078209;28;20199;-88
2021/11/14 04:28:20;;;;;;;79.97;36.27;;;12.70;99.90;;;;;;5061701;28;20241;-88
2021/11/14 04:30:48;;;;;;;75.03;35.27;;;12.70;99.90;;;;;;5074653;28;20184;-88
2021/11/14 04:33:15;;;;;;;77.20;37.50;;;12.70;99.90;;;;;;5065012;28;20634;-88
2021/11/14 04:35:41;;;;;;;80.13;36.67;;;12.80;99.90;;;;;;5078867;28;20187;-89
2021/11/14 04:38:07;;;;;;;84.77;37.97;;;12.90;99.90;;;;;;5077610;28;20187;-89
2021/11/14 04:40:36;;;;;;;90.70;37.37;;;12.90;99.90;;;;;;5057165;28;20289;-88
2021/11/14 04:43:06;;;;;;;85.23;38.10;;;13.00;99.90;;;;;;5055093;28;20202;-88
2021/11/14 04:45:32;;;;;;;82.97;36.60;;;12.90;99.90;;;;;;5051656;28;20687;-88
2021/11/14 04:47:58;;;;;;;78.67;37.27;;;12.90;99.90;;;;;;5039342;28;20576;-88
2021/11/14 04:50:24;;;;;;;74.23;36.77;;;12.90;99.90;;;;;;5031862;28;20188;-88
2021/11/14 04:52:52;;;;;;;81.13;36.80;;;12.90;99.90;;;;;;5052533;28;20188;-89
2021/11/14 04:55:17;;;;;;;87.83;39.47;;;13.00;99.90;;;;;;5048840;28;20236;-88
2021/11/14 04:57:50;;;;;;;80.50;38.00;;;13.10;99.90;;;;;;5057382;28;20188;-88
2021/11/14 05:00:16;;;;;;;84.10;38.20;;;13.10;99.90;;;;;;5056123;28;20270;-88
2021/11/14 05:02:42;;;;;;;89.40;39.77;;;13.20;99.90;;;;;;5041545;28;20196;-88
2021/11/14 05:05:08;;;;;;;81.63;37.70;;;13.20;99.90;;;;;;5051856;28;20184;-89
2021/11/14 05:07:34;;;;;;;84.93;36.93;;;13.20;99.90;;;;;;5049374;28;20223;-88
2021/11/14 05:10:00;;;;;;;88.90;38.60;;;13.10;99.90;;;;;;5056479;28;20173;-88
2021/11/14 05:12:25;;;;;;;99.57;38.73;;;13.00;99.90;;;;;;5033736;28;20534;-88
2021/11/14 05:14:51;;;;;;;93.43;38.47;;;13.00;99.90;;;;;;5042197;28;20203;-89
2021/11/14 05:17:17;;;;;;;83.67;36.03;;;13.10;99.90;;;;;;5048316;28;20590;-87
2021/11/14 05:19:42;;;;;;;84.00;35.03;;;13.10;99.90;;;;;;5054855;28;20184;-88
2021/11/14 05:22:08;;;;;;;83.50;37.30;;;13.00;99.90;;;;;;5052617;28;20188;-88
2021/11/14 05:24:34;;;;;;;72.83;33.73;;;12.90;99.90;;;;;;5051655;28;21198;-88
2021/11/14 05:26:59;;;;;;;67.70;32.73;;;12.90;99.90;;;;;;5039307;28;20299;-88
2021/11/14 05:29:25;;;;;;;67.27;32.47;;;12.80;99.90;;;;;;5045947;28;20223;-87
2021/11/14 05:31:51;;;;;;;70.53;33.23;;;12.80;99.90;;;;;;5039304;28;20259;-88
2021/11/14 05:34:17;;;;;;;71.30;32.77;;;12.80;99.90;;;;;;5046960;28;20184;-87
2021/11/14 05:36:43;;;;;;;72.73;33.10;;;12.70;99.90;;;;;;5037935;28;20180;-88
2021/11/14 05:39:09;;;;;;;63.30;31.87;;;12.70;99.90;;;;;;5060089;28;20251;-87
2021/11/14 05:41:35;;;;;;;66.20;32.93;;;12.60;99.90;;;;;;5055567;28;20195;-88
2021/11/14 05:44:02;;;;;;;71.00;34.70;;;12.70;99.90;;;;;;5053051;28;20219;-87
2021/11/14 05:46:28;;;;;;;66.03;31.40;;;12.60;99.90;;;;;;5067096;28;20219;-87
2021/11/14 05:48:53;;;;;;;63.40;31.33;;;12.70;99.90;;;;;;5071792;28;20313;-87
2021/11/14 05:51:19;;;;;;;62.40;32.30;;;12.50;99.90;;;;;;5063766;28;20271;-88
2021/11/14 05:53:45;;;;;;;64.00;31.40;;;12.50;99.90;;;;;;5057861;28;20692;-86
2021/11/14 05:56:11;;;;;;;63.10;31.37;;;12.50;99.90;;;;;;5064461;28;20272;-86
2021/11/14 05:58:55;;;;;;;63.80;32.10;;;12.60;99.90;;;;;;5058775;28;20316;-86
2021/11/14 06:06:44;;;;;;;63.37;30.80;;;12.60;99.90;;;;;;5086280;28;20237;-88
2021/11/14 06:09:09;;;;;;;55.57;29.40;;;12.40;99.90;;;;;;5058914;28;20568;-88
2021/11/14 06:11:36;;;;;;;54.73;29.17;;;12.30;99.90;;;;;;5074529;28;20198;-86
2021/11/14 06:14:02;;;;;;;58.40;29.57;;;12.30;99.90;;;;;;5071481;28;20326;-88
2021/11/14 06:16:28;;;;;;;55.47;28.10;;;12.50;99.90;;;;;;5064111;28;20191;-87
2021/11/14 06:18:55;;;;;;;55.47;28.27;;;12.50;99.90;;;;;;5070812;28;20187;-87
2021/11/14 06:21:22;;;;;;;61.30;29.73;;;12.50;99.90;;;;;;5064711;28;20261;-88
2021/11/14 06:23:49;;;;;;;58.93;29.03;;;12.60;99.90;;;;;;5072249;28;20194;-88
2021/11/14 06:26:14;;;;;;;58.47;29.17;;;12.70;99.90;;;;;;5047164;28;20528;-88
2021/11/14 06:28:40;;;;;;;54.60;28.87;;;12.70;99.90;;;;;;5070446;28;20255;-87
2021/11/14 06:31:06;;;;;;;61.07;28.67;;;12.50;99.90;;;;;;5074138;28;20558;-87
2021/11/14 06:33:32;;;;;;;54.83;28.20;;;12.60;99.90;;;;;;5050620;28;20201;-87
2021/11/14 06:35:57;;;;;;;59.07;28.50;;;12.40;99.90;;;;;;5073953;28;20264;-87
2021/11/14 06:38:23;;;;;;;57.90;28.83;;;12.40;99.90;;;;;;5086052;28;21608;-88
2021/11/14 06:40:49;;;;;;;60.90;29.03;;;12.30;99.90;;;;;;5078820;28;20190;-87
2021/11/14 06:43:15;;;;;;;56.40;27.43;;;12.40;99.90;;;;;;5078713;28;20198;-87
2021/11/14 06:45:41;;;;;;;56.93;28.30;;;12.40;99.90;;;;;;5064724;28;20220;-87
2021/11/14 06:48:07;;;;;;;55.37;27.57;;;12.40;99.90;;;;;;5080638;28;20217;-87
2021/11/14 06:50:33;;;;;;;55.90;28.00;;;12.40;99.90;;;;;;5096764;28;20186;-87
2021/11/14 06:52:58;;;;;;;59.93;28.83;;;12.40;99.90;;;;;;5077790;28;20210;-87
2021/11/14 06:55:24;;;;;;;58.03;28.27;;;12.50;99.90;;;;;;5082709;28;20179;-86
2021/11/14 06:57:50;;;;;;;60.67;28.40;;;12.50;99.90;;;;;;5082980;28;20186;-87
2021/11/14 07:00:19;;;;;;;59.30;28.33;;;12.50;99.90;;;;;;5068658;28;20545;-88
2021/11/14 07:02:45;;;;;;;57.80;28.57;;;12.40;99.90;;;;;;5062335;28;20182;-87
2021/11/14 07:05:11;;;;;;;57.73;27.93;;;12.30;99.90;;;;;;5094680;28;20256;-87
2021/11/14 07:07:38;;;;;;;57.40;27.23;;;12.40;99.90;;;;;;5077331;28;20266;-86
2021/11/14 07:10:06;;;;;;;60.27;28.80;;;12.50;99.90;;;;;;5056279;28;20183;-87
2021/11/14 07:12:33;;;;;;;60.77;27.83;;;12.40;99.90;;;;;;5063735;28;20175;-87
2021/11/14 07:14:59;;;;;;;59.97;27.73;;;12.30;99.90;;;;;;5060606;28;20185;-87
2021/11/14 07:17:26;;;;;;;74.67;32.60;;;12.20;99.90;;;;;;5066954;28;20258;-91
2021/11/14 07:19:53;;;;;;;70.57;31.80;;;12.20;99.90;;;;;;5078348;28;20667;-88
2021/11/14 07:22:19;;;;;;;84.77;31.77;;;12.20;99.90;;;;;;5077152;28;20202;-90
2021/11/14 07:24:45;;;;;;;67.27;31.17;;;12.10;99.90;;;;;;5067337;28;20788;-89
2021/11/14 07:27:11;;;;;;;69.87;31.03;;;12.10;99.90;;;;;;5078392;28;20232;-88
2021/11/14 07:29:36;;;;;;;69.17;31.40;;;11.90;99.90;;;;;;5076363;28;20665;-89
2021/11/14 07:32:02;;;;;;;72.77;32.57;;;11.90;99.90;;;;;;5075034;28;20285;-88
2021/11/14 07:34:28;;;;;;;73.53;33.43;;;12.00;99.90;;;;;;5059799;28;20174;-88
2021/11/14 07:36:54;;;;;;;73.77;34.50;;;12.10;99.90;;;;;;5078018;28;20292;-88
2021/11/14 07:39:20;;;;;;;72.90;33.53;;;12.00;99.90;;;;;;5077816;28;20296;-90
2021/11/14 07:41:45;;;;;;;71.53;33.30;;;12.00;99.90;;;;;;5078120;28;20599;-87
2021/11/14 07:44:13;;;;;;;75.60;33.57;;;11.90;99.90;;;;;;5059116;28;20178;-89
2021/11/14 07:46:38;;;;;;;78.53;34.37;;;12.00;99.90;;;;;;5076090;28;20189;-87
2021/11/14 07:49:05;;;;;;;76.80;35.87;;;11.90;99.90;;;;;;5077069;28;20180;-87
2021/11/14 07:51:30;;;;;;;78.03;35.73;;;11.90;99.90;;;;;;5059957;28;20180;-87
2021/11/14 07:54:00;;;;;;;78.00;35.97;;;12.00;99.90;;;;;;5064042;28;20541;-86
2021/11/14 07:56:27;;;;;;;80.53;36.23;;;12.00;99.90;;;;;;5074162;28;20181;-86
2021/11/14 07:58:53;;;;;;;93.43;38.63;;;12.20;99.90;;;;;;5063839;28;20196;-87
2021/11/14 08:01:19;;;;;;;96.33;40.10;;;12.30;99.90;;;;;;5058733;28;20193;-87
2021/11/14 08:03:45;;;;;;;82.80;37.30;;;12.40;99.90;;;;;;5059655;28;20240;-88
2021/11/14 08:06:12;;;;;;;86.37;38.97;;;12.40;99.90;;;;;;5058104;28;20187;-88
2021/11/14 08:08:38;;;;;;;110.87;42.43;;;12.40;99.90;;;;;;5077198;28;20193;-89
2021/11/14 08:11:04;;;;;;;100.07;40.77;;;12.50;99.90;;;;;;5078419;28;20182;-85
2021/11/14 08:13:29;;;;;;;99.17;39.13;;;12.40;99.90;;;;;;5075389;28;20182;-86
2021/11/14 08:15:55;;;;;;;122.40;40.83;;;12.50;99.90;;;;;;5059303;28;20191;-87
2021/11/14 08:18:22;;;;;;;104.93;40.47;;;12.50;99.90;;;;;;5077362;28;20182;-88
2021/11/14 08:20:49;;;;;;;101.80;41.13;;;12.60;99.90;;;;;;5058991;28;20204;-88
2021/11/14 08:23:16;;;;;;;99.77;41.70;;;12.50;99.90;;;;;;5077114;28;20285;-87
2021/11/14 08:25:43;;;;;;;100.70;42.17;;;12.50;99.90;;;;;;5076554;28;20191;-87
2021/11/14 08:28:09;;;;;;;96.13;40.00;;;12.50;99.90;;;;;;5058588;28;20211;-89
2021/11/14 08:30:37;;;;;;;94.07;37.70;;;12.50;99.90;;;;;;5059196;28;20590;-91
2021/11/14 08:33:04;;;;;;;93.97;38.60;;;12.30;99.90;;;;;;5056253;28;20636;-88
2021/11/14 08:35:30;;;;;;;87.80;38.47;;;12.20;99.90;;;;;;5077584;28;20633;-89
2021/11/14 08:37:57;;;;;;;90.27;37.33;;;12.10;99.90;;;;;;5074742;28;20198;-91
2021/11/14 08:40:25;;;;;;;95.50;40.70;;;12.10;99.90;;;;;;5060800;28;20334;-87
2021/11/14 08:42:51;;;;;;;100.03;41.20;;;12.20;99.90;;;;;;5076603;28;20186;-92
2021/11/14 08:45:17;;;;;;;93.73;39.67;;;12.20;99.90;;;;;;5076139;28;20244;-90
2021/11/14 08:47:43;;;;;;;96.17;39.97;;;12.20;99.90;;;;;;5073928;28;20272;-88
2021/11/14 08:50:11;;;;;;;101.43;39.63;;;12.10;99.90;;;;;;5055383;28;20182;-87
2021/11/14 08:52:37;;;;;;;101.73;42.13;;;12.20;99.90;;;;;;5076218;28;20199;-87
2021/11/14 08:55:04;;;;;;;99.37;41.90;;;12.30;99.90;;;;;;5077604;28;20179;-87
2021/11/14 08:57:29;;;;;;;102.73;41.43;;;12.40;99.90;;;;;;5079418;28;20190;-87
2021/11/14 08:59:55;;;;;;;94.10;40.73;;;12.50;99.90;;;;;;5074394;28;20208;-87
2021/11/14 09:02:22;;;;;;;102.13;41.83;;;12.50;99.90;;;;;;5075950;28;20649;-87
2021/11/14 09:04:50;;;;;;;93.67;39.93;;;12.40;99.90;;;;;;5073420;28;20219;-87
2021/11/14 09:07:16;;;;;;;97.70;40.90;;;12.50;99.90;;;;;;5075681;28;20217;-90
2021/11/14 09:09:42;;;;;;;97.63;39.70;;;12.40;99.90;;;;;;5076525;28;20184;-87
2021/11/14 09:12:08;;;;;;;98.17;41.10;;;12.30;99.90;;;;;;5094970;28;20190;-88
2021/11/14 09:14:34;;;;;;;97.73;41.80;;;12.30;99.90;;;;;;5076182;28;20194;-87
2021/11/14 09:17:00;;;;;;;105.17;40.27;;;12.20;99.90;;;;;;5076053;28;20190;-89
2021/11/14 09:19:25;;;;;;;104.20;41.57;;;12.30;99.90;;;;;;5076143;28;20557;-88
2021/11/14 09:21:52;;;;;;;99.10;41.40;;;12.30;99.90;;;;;;5060779;28;20181;-88
2021/11/14 09:24:18;;;;;;;103.47;41.53;;;12.20;99.90;;;;;;5061843;28;20193;-91
2021/11/14 09:26:44;;;;;;;94.67;38.73;;;12.20;99.90;;;;;;5070127;28;20214;-87
2021/11/14 09:29:12;;;;;;;105.07;39.47;;;12.20;99.90;;;;;;5053873;28;20201;-87
2021/11/14 09:31:38;;;;;;;99.13;38.90;;;12.00;99.90;;;;;;5050491;28;20197;-87
2021/11/14 09:34:05;;;;;;;97.13;39.73;;;12.00;99.90;;;;;;5053773;28;20266;-87
2021/11/14 09:36:31;;;;;;;98.93;39.77;;;12.10;99.90;;;;;;5052887;28;20193;-87
2021/11/14 09:39:04;;;;;;;93.00;37.90;;;12.20;99.90;;;;;;5068608;28;20250;-87
2021/11/14 09:41:30;;;;;;;94.70;37.93;;;12.40;99.90;;;;;;5059447;28;20187;-87
2021/11/14 09:43:56;;;;;;;95.43;37.03;;;12.60;99.90;;;;;;5049097;28;20179;-86
2021/11/14 09:46:22;;;;;;;89.67;36.37;;;12.60;99.90;;;;;;5059337;28;20192;-88
2021/11/14 09:48:48;;;;;;;90.20;37.03;;;12.70;99.90;;;;;;5048777;28;20267;-86
2021/11/14 09:51:14;;;;;;;88.87;35.90;;;12.60;99.90;;;;;;5054457;28;20267;-87
2021/11/14 09:53:41;;;;;;;75.83;33.93;;;12.80;99.90;;;;;;5072420;28;20202;-89
2021/11/14 09:56:07;;;;;;;79.17;34.40;;;12.80;99.90;;;;;;5053542;28;20184;-91
2021/11/14 09:58:34;;;;;;;91.20;37.27;;;12.60;99.90;;;;;;5064571;28;20897;-87
2021/11/14 10:01:01;;;;;;;91.57;37.27;;;12.60;99.90;;;;;;5069964;28;20233;-88
2021/11/14 10:03:28;;;;;;;87.57;37.63;;;12.70;99.90;;;;;;5045894;28;20202;-88
2021/11/14 10:05:53;;;;;;;89.43;38.47;;;12.80;99.90;;;;;;5054221;28;20179;-87
2021/11/14 10:08:19;;;;;;;97.23;39.13;;;12.90;99.90;;;;;;5058234;28;20211;-92
2021/11/14 10:10:51;;;;;;;92.37;38.27;;;13.00;99.90;;;;;;5053427;28;20608;-89
2021/11/14 10:13:23;;;;;;;94.10;37.83;;;12.80;99.90;;;;;;5044501;28;20259;-92
2021/11/14 10:16:03;;;;;;;89.93;38.10;;;12.60;99.90;;;;;;5066671;28;20219;-90
2021/11/14 10:18:29;;;;;;;100.20;38.87;;;12.50;99.90;;;;;;5065288;28;20185;-88
2021/11/14 10:20:58;;;;;;;101.03;39.13;;;12.40;99.90;;;;;;5054883;28;20181;-87
2021/11/14 10:23:25;;;;;;;95.00;37.67;;;12.40;99.90;;;;;;5035479;28;20188;-89
2021/11/14 10:25:54;;;;;;;89.80;38.07;;;12.40;99.90;;;;;;5066075;28;20187;-90
2021/11/14 10:28:20;;;;;;;91.07;38.47;;;12.40;99.90;;;;;;5047391;28;20243;-89
2021/11/14 10:30:47;;;;;;;94.57;38.20;;;12.40;99.90;;;;;;5070557;28;20217;-90
2021/11/14 10:33:16;;;;;;;81.97;35.03;;;12.50;99.90;;;;;;5064263;28;20188;-90
2021/11/14 10:35:45;;;;;;;81.40;35.50;;;12.40;99.90;;;;;;5063869;28;20180;-89
2021/11/14 10:38:17;;;;;;;84.27;36.63;;;12.30;99.90;;;;;;5054539;28;20905;-87
2021/11/14 10:40:46;;;;;;;83.27;36.27;;;12.30;99.90;;;;;;5046077;28;20325;-87
2021/11/14 10:43:12;;;;;;;84.97;37.73;;;12.40;99.90;;;;;;5019513;28;20278;-88
2021/11/14 10:45:40;;;;;;;86.23;36.57;;;12.40;99.90;;;;;;5035093;28;20273;-87
2021/11/14 10:48:09;;;;;;;83.87;36.13;;;12.40;99.90;;;;;;5050333;28;20211;-87
2021/11/14 10:50:37;;;;;;;87.50;38.03;;;12.40;99.90;;;;;;5043565;28;20186;-87
2021/11/14 10:53:15;;;;;;;94.30;40.70;;;12.40;99.90;;;;;;5032680;28;20270;-89
2021/11/14 10:55:53;;;;;;;92.90;39.40;;;12.50;99.90;;;;;;5027521;28;20219;-86
2021/11/14 10:58:25;;;;;;;88.50;38.47;;;12.50;99.90;;;;;;5030793;28;20261;-90
2021/11/14 11:00:56;;;;;;;88.73;38.57;;;12.30;99.90;;;;;;5042333;28;20179;-86
2021/11/14 11:03:22;;;;;;;94.53;38.97;;;12.20;99.90;;;;;;5017853;28;20209;-90
2021/11/14 11:05:48;;;;;;;88.90;36.83;;;12.20;99.90;;;;;;5045233;28;20255;-87
2021/11/14 11:08:22;;;;;;;82.83;37.37;;;12.40;99.90;;;;;;5038555;28;20259;-89
2021/11/14 11:10:55;;;;;;;84.17;36.03;;;12.40;99.90;;;;;;5048978;28;20193;-86
2021/11/14 11:13:41;;;;;;;83.67;36.90;;;12.30;99.90;;;;;;5025143;28;20179;-88
2021/11/14 11:16:15;;;;;;;81.67;35.43;;;12.30;99.90;;;;;;5048823;28;20236;-87
2021/11/14 11:18:44;;;;;;;82.43;35.50;;;12.40;99.90;;;;;;5043289;28;20263;-88
2021/11/14 11:21:12;;;;;;;74.07;33.67;;;12.50;99.90;;;;;;5033757;28;20577;-87
2021/11/14 11:23:45;;;;;;;78.30;35.23;;;12.50;99.90;;;;;;5037986;28;20194;-87
2021/11/14 11:26:13;;;;;;;76.60;35.97;;;12.50;99.90;;;;;;5036301;28;20622;-90
2021/11/14 11:28:45;;;;;;;82.97;37.27;;;12.40;99.90;;;;;;5051308;28;20275;-93
2021/11/14 11:31:13;;;;;;;74.93;34.93;;;12.30;99.90;;;;;;5020347;28;20183;-90
2021/11/14 11:33:46;;;;;;;79.23;36.53;;;12.30;99.90;;;;;;5050469;28;20210;-89
2021/11/14 11:36:14;;;;;;;79.37;37.40;;;12.30;99.90;;;;;;5025999;28;20523;-89
2021/11/14 11:38:44;;;;;;;70.77;33.73;;;12.30;99.90;;;;;;5046103;28;20221;-89
2021/11/14 11:41:12;;;;;;;72.93;34.77;;;12.30;99.90;;;;;;5061563;28;20705;-89
2021/11/14 11:43:43;;;;;;;68.57;32.40;;;12.10;99.90;;;;;;5061254;28;20182;-89
2021/11/14 11:46:12;;;;;;;71.63;32.50;;;12.10;99.90;;;;;;5077813;28;20225;-89
2021/11/14 11:48:54;;;;;;;62.33;30.77;;;12.10;99.90;;;;;;5063383;28;20239;-88
2021/11/14 11:51:32;;;;;;;64.60;32.07;;;12.10;99.90;;;;;;5085281;28;20234;-88
2021/11/14 11:53:59;;;;;;;67.70;32.90;;;12.10;99.90;;;;;;5058852;28;20179;-89
2021/11/14 11:56:44;;;;;;;67.60;32.90;;;12.30;99.90;;;;;;5062067;28;20171;-92
2021/11/14 11:59:35;;;;;;;69.30;32.87;;;12.30;99.90;;;;;;5077413;28;20220;-93
2021/11/14 12:02:11;;;;;;;58.83;30.57;;;12.50;99.90;;;;;;5077378;28;20213;-88
2021/11/14 12:04:45;;;;;;;61.27;31.37;;;12.60;99.90;;;;;;5061188;28;20190;-89
2021/11/14 12:07:21;;;;;;;62.03;32.10;;;12.70;99.90;;;;;;5077928;28;20575;-89
2021/11/14 12:09:59;;;;;;;59.37;31.80;;;12.80;99.90;;;;;;5070549;28;20655;-93
2021/11/14 12:12:27;;;;;;;56.90;29.27;;;12.90;99.90;;;;;;5079746;28;20184;-91
2021/11/14 12:15:16;;;;;;;58.63;30.83;;;12.90;99.90;;;;;;5075250;28;20222;-92
2021/11/14 12:18:00;;;;;;;55.00;29.93;;;12.80;99.90;;;;;;5061810;28;20209;-89
2021/11/14 12:20:33;;;;;;;50.80;27.73;;;12.90;99.90;;;;;;5059066;28;20195;-90
2021/11/14 12:23:24;;;;;;;52.30;28.40;;;12.80;99.90;;;;;;5060701;28;20660;-91
2021/11/14 12:25:52;;;;;;;48.57;26.53;;;12.90;99.90;;;;;;5056415;28;20194;-93
2021/11/14 12:28:25;;;;;;;49.40;26.03;;;12.70;99.90;;;;;;5053604;28;20209;-90
2021/11/14 12:30:57;;;;;;;50.13;25.90;;;12.60;99.90;;;;;;5076336;28;20183;-89
2021/11/14 12:33:26;;;;;;;48.43;24.80;;;12.70;99.90;;;;;;5059237;28;20190;-91